Terminal Aerodrome Forecast
Issued by NWS Charleston, WV

Current Version | Previous Version | Text Only | Print | Product List | Glossary On
Versions: 1 2 3 4 5 6 7 8 9 10 11 12 13 14 15 16 17 18 19 20 21 22 23 24 25 26 27 28
000
FTUS41 KRLX 200900 AAB
TAFHTS
TAF AMD
KHTS 200915Z 2009/2106 29010G20KT 1SM TSRA BR SCT015 BKN040CB
      TEMPO 2009/2010 4SM -TSRA BR BKN020CB
     FM201000 VRB03KT 3SM SHRA BR VCTS OVC025CB
     FM201400 20005KT 6SM BR BKN025
     FM201700 24008KT P6SM VCTS BKN035CB
     FM202100 24006KT P6SM BKN040
     FM202200 24005KT P6SM VCTS BKN040CB
     FM210200 VRB03KT 6SM BR BKN200=

USA.gov is the U.S. government's official web portal to all federal, state and local government web resources and services.